createdAt,value
2023-05-19T00:01:15.316Z,48.19
2023-05-19T00:03:53.872Z,48.44
2023-05-19T00:06:25.243Z,48.63
2023-05-19T00:09:02.772Z,48.65
2023-05-19T00:11:30.230Z,50.92
2023-05-19T00:13:59.207Z,50.92
2023-05-19T00:16:26.984Z,49.94
2023-05-19T00:18:54.605Z,48.99
2023-05-19T00:21:21.616Z,48.43
2023-05-19T00:23:48.735Z,49.37
2023-05-19T00:26:15.733Z,49.08
2023-05-19T00:28:53.069Z,48.43
2023-05-19T00:31:20.735Z,48.74
2023-05-19T00:33:47.844Z,48.09
2023-05-19T00:36:15.029Z,48.92
2023-05-19T00:38:42.138Z,49.16
2023-05-19T00:41:09.149Z,49.16
2023-05-19T00:43:36.468Z,49.07
2023-05-19T00:46:03.574Z,48.85
2023-05-19T00:48:30.705Z,49.64
2023-05-19T00:51:04.927Z,50.13
2023-05-19T00:53:32.700Z,50.51
2023-05-19T00:56:00.539Z,52.20
2023-05-19T00:58:30.592Z,51.98
2023-05-19T01:01:04.600Z,52.17
2023-05-19T01:03:32.928Z,51.77
2023-05-19T01:06:04.942Z,50.67
2023-05-19T01:08:32.913Z,50.44
2023-05-19T01:11:00.152Z,49.83
2023-05-19T01:13:30.480Z,49.45
2023-05-19T01:16:01.499Z,48.90
2023-05-19T01:18:50.280Z,48.42
2023-05-19T01:21:36.459Z,48.32
2023-05-19T01:24:41.084Z,47.84
2023-05-19T01:27:11.113Z,47.40
2023-05-19T01:29:44.258Z,47.28
2023-05-19T01:32:11.931Z,47.26
2023-05-19T01:34:43.187Z,47.00
2023-05-19T01:37:10.305Z,47.21
2023-05-19T01:39:37.316Z,47.64
2023-05-19T01:42:04.560Z,47.86
2023-05-19T01:44:31.846Z,47.69
2023-05-19T01:46:59.155Z,47.97
2023-05-19T01:49:26.229Z,47.92
2023-05-19T01:51:54.292Z,47.86
2023-05-19T01:54:22.520Z,48.10
2023-05-19T01:56:52.268Z,47.65
2023-05-19T01:59:37.686Z,47.57
2023-05-19T02:02:11.143Z,48.26
2023-05-19T02:04:41.327Z,48.38
2023-05-19T02:07:21.355Z,47.59
2023-05-19T02:10:11.259Z,47.96
2023-05-19T02:12:40.414Z,47.97
2023-05-19T02:15:18.048Z,47.50
2023-05-19T02:17:48.473Z,47.07
2023-05-19T02:20:16.320Z,47.50
2023-05-19T02:22:43.388Z,47.53
2023-05-19T02:25:10.887Z,47.43
2023-05-19T02:27:38.478Z,47.39
2023-05-19T02:30:06.478Z,47.54
2023-05-19T02:32:33.608Z,48.09
2023-05-19T02:35:00.750Z,47.66
2023-05-19T02:37:31.233Z,48.22
2023-05-19T02:39:58.396Z,48.20
2023-05-19T02:42:25.476Z,48.08
2023-05-19T02:44:55.371Z,48.18
2023-05-19T02:47:22.630Z,48.07
2023-05-19T02:49:49.954Z,47.81
2023-05-19T02:52:17.119Z,47.99
2023-05-19T02:54:44.204Z,48.34
2023-05-19T02:57:11.510Z,47.43
2023-05-19T02:59:38.594Z,47.41
2023-05-19T03:02:05.834Z,48.04
2023-05-19T03:04:32.907Z,47.73
2023-05-19T03:06:59.984Z,48.23
2023-05-19T03:09:27.140Z,48.50
2023-05-19T03:11:54.169Z,48.61
2023-05-19T03:14:24.014Z,48.50
2023-05-19T03:16:51.544Z,49.07
2023-05-19T03:19:18.771Z,48.20
2023-05-19T03:21:46.453Z,48.94
2023-05-19T03:24:13.854Z,48.45
2023-05-19T03:26:41.130Z,48.41
2023-05-19T03:29:08.442Z,48.30
2023-05-19T03:31:37.364Z,48.37
2023-05-19T03:34:05.348Z,48.97
2023-05-19T03:36:32.484Z,49.33
2023-05-19T03:39:00.465Z,48.83
2023-05-19T03:41:28.180Z,49.10
2023-05-19T03:43:56.212Z,48.90
2023-05-19T03:46:23.614Z,48.96
2023-05-19T03:49:13.984Z,50.36
2023-05-19T03:51:59.534Z,49.96
2023-05-19T03:54:33.612Z,49.82
2023-05-19T03:57:00.660Z,49.84
2023-05-19T03:59:28.180Z,49.66
2023-05-19T04:01:55.256Z,49.72
2023-05-19T04:04:22.911Z,51.44
2023-05-19T04:06:50.040Z,51.81
2023-05-19T04:09:17.109Z,52.43
2023-05-19T04:11:44.253Z,51.61
2023-05-19T04:14:11.293Z,50.79
2023-05-19T04:16:38.350Z,51.53
2023-05-19T04:19:05.851Z,51.95
2023-05-19T04:21:33.134Z,50.98
2023-05-19T04:24:00.249Z,50.97
2023-05-19T04:26:30.763Z,51.00
2023-05-19T04:28:57.959Z,52.45
2023-05-19T04:31:25.101Z,53.19
2023-05-19T04:33:53.579Z,52.31
2023-05-19T04:36:21.964Z,53.00
2023-05-19T04:38:54.981Z,54.80
2023-05-19T04:41:25.114Z,57.39
2023-05-19T04:43:52.172Z,55.00
2023-05-19T04:46:24.498Z,52.37
2023-05-19T04:48:55.426Z,51.77
2023-05-19T04:51:22.674Z,52.80
2023-05-19T04:53:49.830Z,52.53
2023-05-19T04:56:16.998Z,52.22
2023-05-19T04:58:45.863Z,51.79
2023-05-19T05:01:14.009Z,52.30
2023-05-19T05:03:42.269Z,52.54
2023-05-19T05:06:11.815Z,53.19
2023-05-19T05:08:40.594Z,54.02
2023-05-19T05:11:08.065Z,54.44
2023-05-19T05:13:35.601Z,53.75
2023-05-19T05:16:06.539Z,54.35
2023-05-19T05:18:34.464Z,53.06
2023-05-19T05:21:01.744Z,54.04
2023-05-19T05:23:29.550Z,54.88
2023-05-19T05:25:57.415Z,55.72
2023-05-19T05:28:24.544Z,56.57
2023-05-19T05:30:51.586Z,55.51
2023-05-19T05:33:19.592Z,55.23
2023-05-19T05:35:47.909Z,54.88
2023-05-19T05:38:15.258Z,54.61
2023-05-19T05:40:42.644Z,56.48
2023-05-19T05:43:10.208Z,54.60
2023-05-19T05:45:43.986Z,54.33
2023-05-19T05:48:11.647Z,56.86
2023-05-19T05:50:39.343Z,54.88
2023-05-19T05:53:07.549Z,54.57
2023-05-19T05:55:37.446Z,54.96
2023-05-19T05:58:06.418Z,54.80
2023-05-19T06:00:34.740Z,54.91
2023-05-19T06:03:03.197Z,57.21
2023-05-19T06:05:31.433Z,57.32
2023-05-19T06:07:58.614Z,55.88
2023-05-19T06:10:28.537Z,54.61
2023-05-19T06:12:56.021Z,53.50
2023-05-19T06:15:23.929Z,52.83
2023-05-19T06:17:58.715Z,52.13
2023-05-19T06:20:25.810Z,54.97
2023-05-19T06:22:53.156Z,53.60
2023-05-19T06:25:21.929Z,54.10
2023-05-19T06:27:50.104Z,54.69
2023-05-19T06:30:17.288Z,55.71
2023-05-19T06:32:54.100Z,54.16
2023-05-19T06:35:21.273Z,54.19
2023-05-19T06:37:48.553Z,51.87
2023-05-19T06:40:15.837Z,50.92
2023-05-19T06:42:43.679Z,50.07
2023-05-19T06:45:16.754Z,50.98
2023-05-19T06:47:44.777Z,51.46
2023-05-19T06:50:12.075Z,52.14
2023-05-19T06:52:42.012Z,53.57
2023-05-19T06:55:09.203Z,54.66
2023-05-19T06:57:38.511Z,52.95
2023-05-19T07:00:09.799Z,52.52
2023-05-19T07:02:37.123Z,53.17
2023-05-19T07:05:04.686Z,51.85
2023-05-19T07:07:31.948Z,53.17
2023-05-19T07:09:59.331Z,52.84
2023-05-19T07:12:27.252Z,52.64
2023-05-19T07:14:54.732Z,53.00
2023-05-19T07:17:23.294Z,52.70
2023-05-19T07:19:50.522Z,52.03
2023-05-19T07:22:17.753Z,53.19
2023-05-19T07:24:45.315Z,53.82
2023-05-19T07:27:12.743Z,52.29
2023-05-19T07:29:40.156Z,51.45
2023-05-19T07:32:07.418Z,52.11
2023-05-19T07:34:35.189Z,53.45
2023-05-19T07:37:03.531Z,52.11
2023-05-19T07:39:32.838Z,53.95
2023-05-19T07:42:01.011Z,53.73
2023-05-19T07:44:28.375Z,53.53
2023-05-19T07:46:55.859Z,54.65
2023-05-19T07:49:23.164Z,52.94
2023-05-19T07:51:50.734Z,50.50
2023-05-19T07:54:18.763Z,49.08
2023-05-19T07:56:45.759Z,50.80
2023-05-19T07:59:13.404Z,52.83
2023-05-19T08:01:40.473Z,52.23
2023-05-19T08:04:10.306Z,50.29
2023-05-19T08:06:38.933Z,52.67
2023-05-19T08:09:06.458Z,51.62
2023-05-19T08:11:33.603Z,51.83
2023-05-19T08:14:00.690Z,49.67
2023-05-19T08:16:27.878Z,49.36
2023-05-19T08:18:55.662Z,52.04
2023-05-19T08:21:22.890Z,53.86
2023-05-19T08:23:50.077Z,52.31
2023-05-19T08:26:17.110Z,52.02
2023-05-19T08:28:44.354Z,51.95
2023-05-19T08:31:11.557Z,52.67
2023-05-19T08:33:39.047Z,53.15
2023-05-19T08:36:06.717Z,51.98
2023-05-19T08:38:33.807Z,52.91
2023-05-19T08:41:00.885Z,51.72
2023-05-19T08:43:28.058Z,51.76
2023-05-19T08:45:55.560Z,53.01
2023-05-19T08:48:22.901Z,52.72
2023-05-19T08:50:57.653Z,51.47
2023-05-19T08:53:34.084Z,52.55
2023-05-19T08:56:04.159Z,53.37
2023-05-19T08:58:31.493Z,53.29
2023-05-19T09:00:58.565Z,54.48
2023-05-19T09:03:26.688Z,52.02
2023-05-19T09:05:53.837Z,52.15
2023-05-19T09:08:21.175Z,51.26
2023-05-19T09:10:48.217Z,52.98
2023-05-19T09:13:15.303Z,50.40
2023-05-19T09:15:42.357Z,49.45
2023-05-19T09:18:11.017Z,51.09
2023-05-19T09:20:42.510Z,52.73
2023-05-19T09:23:17.549Z,51.85
2023-05-19T09:25:51.224Z,52.65
2023-05-19T09:28:33.358Z,53.34
2023-05-19T09:31:04.160Z,52.82
2023-05-19T09:33:33.512Z,51.06
2023-05-19T09:36:00.755Z,52.58
2023-05-19T09:38:27.983Z,53.53
2023-05-19T09:40:58.885Z,53.59
2023-05-19T09:43:33.772Z,52.69
2023-05-19T09:46:07.359Z,50.90
2023-05-19T09:48:35.650Z,50.92
2023-05-19T09:51:03.406Z,50.70
2023-05-19T09:53:31.332Z,50.04
2023-05-19T09:55:58.502Z,47.67
2023-05-19T09:58:26.578Z,47.14
2023-05-19T10:00:54.891Z,48.65
2023-05-19T10:03:23.377Z,47.19
2023-05-19T10:05:50.669Z,50.91
2023-05-19T10:08:18.080Z,50.08
2023-05-19T10:10:48.349Z,52.15
2023-05-19T10:13:16.582Z,51.41
2023-05-19T10:15:57.146Z,50.17
2023-05-19T10:18:27.042Z,48.23
2023-05-19T10:20:54.373Z,49.19
2023-05-19T10:23:22.474Z,47.87
2023-05-19T10:25:50.605Z,49.26
2023-05-19T10:28:17.796Z,49.73
2023-05-19T10:30:46.156Z,49.94
2023-05-19T10:33:16.006Z,49.79
2023-05-19T10:35:44.190Z,50.01
2023-05-19T10:38:22.203Z,49.63
2023-05-19T10:41:07.907Z,51.90
2023-05-19T10:43:44.103Z,50.34
2023-05-19T10:46:11.215Z,48.74
2023-05-19T10:48:38.248Z,48.64
2023-05-19T10:51:07.297Z,47.87
2023-05-19T10:53:35.076Z,47.78
2023-05-19T10:56:07.125Z,46.59
2023-05-19T10:58:46.549Z,45.89
2023-05-19T11:01:17.470Z,46.30
2023-05-19T11:03:52.520Z,44.55
2023-05-19T11:06:20.925Z,46.90
2023-05-19T11:08:52.317Z,45.18
2023-05-19T11:11:19.588Z,47.29
2023-05-19T11:13:56.396Z,47.97
2023-05-19T11:16:30.043Z,49.15
2023-05-19T11:18:59.165Z,49.11
2023-05-19T11:21:41.863Z,49.64
2023-05-19T11:24:09.956Z,47.41
2023-05-19T11:26:41.121Z,48.28
2023-05-19T11:29:08.101Z,48.39
2023-05-19T11:31:36.468Z,48.67
2023-05-19T11:34:05.513Z,47.25
2023-05-19T11:36:32.621Z,45.47
2023-05-19T11:39:00.207Z,43.74
2023-05-19T11:41:28.556Z,42.18
2023-05-19T11:43:55.653Z,44.67
2023-05-19T11:46:22.699Z,43.03
2023-05-19T11:48:50.648Z,46.23
2023-05-19T11:51:17.690Z,50.25
2023-05-19T11:53:46.177Z,49.76
2023-05-19T11:56:13.263Z,48.99
2023-05-19T11:58:40.405Z,51.47
2023-05-19T12:01:10.351Z,50.93
2023-05-19T12:03:37.580Z,50.40
2023-05-19T12:06:06.035Z,50.64
2023-05-19T12:08:33.540Z,50.02
2023-05-19T12:11:00.586Z,50.46
2023-05-19T12:13:27.630Z,47.55
2023-05-19T12:16:01.878Z,47.37
2023-05-19T12:18:36.972Z,46.34
2023-05-19T12:21:04.704Z,46.66
2023-05-19T12:23:32.343Z,44.02
2023-05-19T12:25:59.777Z,44.44
2023-05-19T12:28:26.883Z,45.19
2023-05-19T12:30:54.085Z,48.42
2023-05-19T12:33:22.029Z,48.62
2023-05-19T12:35:50.057Z,48.78
2023-05-19T12:38:17.288Z,48.13
2023-05-19T12:40:44.366Z,44.93
2023-05-19T12:43:23.913Z,46.41
2023-05-19T12:45:51.007Z,44.58
2023-05-19T12:48:18.837Z,43.38
2023-05-19T12:50:46.008Z,44.83
2023-05-19T12:53:13.534Z,45.49
2023-05-19T12:55:44.798Z,46.12
2023-05-19T12:58:12.535Z,48.18
2023-05-19T13:00:44.970Z,47.04
2023-05-19T13:03:19.647Z,45.99
2023-05-19T13:05:50.522Z,46.87
2023-05-19T13:08:21.601Z,48.40
2023-05-19T13:10:49.719Z,48.47
2023-05-19T13:13:35.503Z,49.90
2023-05-19T13:16:21.157Z,50.46
2023-05-19T13:19:06.937Z,50.14
2023-05-19T13:21:33.997Z,49.73
2023-05-19T13:24:01.147Z,50.20
2023-05-19T13:26:28.186Z,50.11
2023-05-19T13:28:55.290Z,48.21
2023-05-19T13:31:22.471Z,49.36
2023-05-19T13:33:49.671Z,48.78
2023-05-19T13:36:16.788Z,47.83
2023-05-19T13:38:43.956Z,48.29
2023-05-19T13:41:11.000Z,49.13
2023-05-19T13:43:38.112Z,48.74
2023-05-19T13:46:05.204Z,48.13
2023-05-19T13:48:32.581Z,48.22
2023-05-19T13:50:59.684Z,45.39
2023-05-19T13:53:27.457Z,47.53
2023-05-19T13:55:56.114Z,48.15
2023-05-19T13:58:23.441Z,48.56
2023-05-19T14:00:54.650Z,47.69
2023-05-19T14:03:22.107Z,48.09
2023-05-19T14:05:49.228Z,47.14
2023-05-19T14:08:16.510Z,46.61
2023-05-19T14:10:43.517Z,43.93
2023-05-19T14:13:31.348Z,42.62
2023-05-19T14:15:59.633Z,44.68
2023-05-19T14:18:26.697Z,45.65
2023-05-19T14:20:53.768Z,46.15
2023-05-19T14:23:21.737Z,46.11
2023-05-19T14:25:48.926Z,45.87
2023-05-19T14:28:15.911Z,44.96
2023-05-19T14:30:43.267Z,46.09
2023-05-19T14:33:10.456Z,43.50
2023-05-19T14:35:37.624Z,43.37
2023-05-19T14:38:04.644Z,42.21
2023-05-19T14:40:31.861Z,43.69
2023-05-19T14:42:59.120Z,46.64
2023-05-19T14:45:26.177Z,45.43
2023-05-19T14:47:53.407Z,45.65
2023-05-19T14:50:20.860Z,41.95
2023-05-19T14:52:47.973Z,40.15
2023-05-19T14:55:15.176Z,40.54
2023-05-19T14:57:43.521Z,44.21
2023-05-19T15:00:11.060Z,45.76
2023-05-19T15:02:38.092Z,46.48
2023-05-19T15:05:05.600Z,46.90
2023-05-19T15:07:33.218Z,45.47
2023-05-19T15:10:01.727Z,46.15
2023-05-19T15:12:28.953Z,45.36
2023-05-19T15:14:56.323Z,42.83
2023-05-19T15:17:23.416Z,40.75
2023-05-19T15:19:50.563Z,41.28
2023-05-19T15:22:17.698Z,40.76
2023-05-19T15:24:44.733Z,41.19
2023-05-19T15:27:11.762Z,43.87
2023-05-19T15:29:38.787Z,45.86
2023-05-19T15:32:06.227Z,46.67
2023-05-19T15:34:33.210Z,46.56
2023-05-19T15:37:00.517Z,46.62
2023-05-19T15:39:27.656Z,46.37
2023-05-19T15:41:54.622Z,44.20
2023-05-19T15:44:21.643Z,42.38
2023-05-19T15:46:48.753Z,43.47
2023-05-19T15:49:17.912Z,42.61
2023-05-19T15:51:45.174Z,43.11
2023-05-19T15:54:12.219Z,42.18
2023-05-19T15:56:39.306Z,42.36
2023-05-19T15:59:06.381Z,42.30
2023-05-19T16:01:33.448Z,43.18
2023-05-19T16:04:02.224Z,42.48
2023-05-19T16:06:30.123Z,41.39
2023-05-19T16:08:57.403Z,42.49
2023-05-19T16:11:24.477Z,43.07
2023-05-19T16:13:51.506Z,42.88
2023-05-19T16:16:18.927Z,45.23
2023-05-19T16:18:46.031Z,45.39
2023-05-19T16:21:13.228Z,44.62
2023-05-19T16:23:40.337Z,45.90
2023-05-19T16:26:07.633Z,45.86
2023-05-19T16:28:34.813Z,44.81
2023-05-19T16:31:01.971Z,43.64
2023-05-19T16:33:30.066Z,42.75
2023-05-19T16:35:58.452Z,43.54
2023-05-19T16:38:26.744Z,43.52
2023-05-19T16:40:53.875Z,43.19
2023-05-19T16:43:20.992Z,42.64
2023-05-19T16:45:48.041Z,42.02
2023-05-19T16:48:15.238Z,41.91
2023-05-19T16:50:42.385Z,41.64
2023-05-19T16:53:09.499Z,42.56
2023-05-19T16:55:36.554Z,43.17
2023-05-19T16:58:03.612Z,42.84
2023-05-19T17:00:30.768Z,42.75
2023-05-19T17:02:58.082Z,41.99
2023-05-19T17:05:25.304Z,41.21
2023-05-19T17:07:52.389Z,42.88
2023-05-19T17:10:19.464Z,43.75
2023-05-19T17:12:46.504Z,45.09
2023-05-19T17:15:13.626Z,43.42
2023-05-19T17:17:40.873Z,42.67
2023-05-19T17:20:08.589Z,41.66
2023-05-19T17:22:35.696Z,40.32
2023-05-19T17:25:02.791Z,42.06
2023-05-19T17:27:29.982Z,42.73
2023-05-19T17:29:57.122Z,43.36
2023-05-19T17:32:28.240Z,43.18
2023-05-19T17:34:55.781Z,43.19
2023-05-19T17:37:25.750Z,42.88
2023-05-19T17:39:52.958Z,43.15
2023-05-19T17:42:20.054Z,44.34
2023-05-19T17:44:47.081Z,44.32
2023-05-19T17:47:14.146Z,45.18
2023-05-19T17:49:41.830Z,45.18
2023-05-19T17:52:09.625Z,44.84
2023-05-19T17:54:37.009Z,43.75
2023-05-19T17:57:04.207Z,45.38
2023-05-19T17:59:31.717Z,45.97
2023-05-19T18:01:59.172Z,47.11
2023-05-19T18:04:26.854Z,47.09
2023-05-19T18:06:54.032Z,47.43
2023-05-19T18:09:21.580Z,45.98
2023-05-19T18:11:48.725Z,46.46
2023-05-19T18:14:15.932Z,46.95
2023-05-19T18:16:43.072Z,48.05
2023-05-19T18:19:10.275Z,48.40
2023-05-19T18:21:37.414Z,47.75
2023-05-19T18:24:05.475Z,47.60
2023-05-19T18:26:33.574Z,48.47
2023-05-19T18:29:04.833Z,48.77
2023-05-19T18:31:32.471Z,47.17
2023-05-19T18:33:59.705Z,47.04
2023-05-19T18:36:26.766Z,47.13
2023-05-19T18:38:55.218Z,46.80
2023-05-19T18:41:22.463Z,48.20
2023-05-19T18:43:49.516Z,47.25
2023-05-19T18:46:19.741Z,47.43
2023-05-19T18:48:46.987Z,47.58
2023-05-19T18:51:15.909Z,48.62
2023-05-19T18:53:42.978Z,49.37
2023-05-19T18:56:11.280Z,47.59
2023-05-19T18:58:38.349Z,48.42
2023-05-19T19:01:05.577Z,47.52
2023-05-19T19:03:32.648Z,48.64
2023-05-19T19:05:59.838Z,48.42
2023-05-19T19:08:26.918Z,47.45
2023-05-19T19:10:59.328Z,47.06
2023-05-19T19:13:27.178Z,47.57
2023-05-19T19:15:54.186Z,49.37
2023-05-19T19:18:21.326Z,50.58
2023-05-19T19:20:48.333Z,50.18
2023-05-19T19:23:15.489Z,50.80
2023-05-19T19:25:42.550Z,49.92
2023-05-19T19:28:10.570Z,51.14
2023-05-19T19:30:37.648Z,51.15
2023-05-19T19:33:06.553Z,50.55
2023-05-19T19:35:34.027Z,51.72
2023-05-19T19:38:01.375Z,52.55
2023-05-19T19:40:29.402Z,51.97
2023-05-19T19:42:56.492Z,51.82
2023-05-19T19:45:23.878Z,51.67
2023-05-19T19:47:51.764Z,52.64
2023-05-19T19:50:19.065Z,52.72
2023-05-19T19:52:46.280Z,52.21
2023-05-19T19:55:13.450Z,51.85
2023-05-19T19:57:40.584Z,51.92
2023-05-19T20:00:08.632Z,52.66
2023-05-19T20:02:41.036Z,51.87
2023-05-19T20:05:13.316Z,50.72
2023-05-19T20:07:40.333Z,52.99
2023-05-19T20:10:08.316Z,53.11
2023-05-19T20:12:35.492Z,52.10
2023-05-19T20:15:02.523Z,52.33
2023-05-19T20:17:29.613Z,52.15
2023-05-19T20:19:56.689Z,52.50
2023-05-19T20:22:23.781Z,51.47
2023-05-19T20:24:50.840Z,51.74
2023-05-19T20:27:17.910Z,53.29
2023-05-19T20:29:47.113Z,52.24
2023-05-19T20:32:14.171Z,51.19
2023-05-19T20:34:41.415Z,52.32
2023-05-19T20:37:08.630Z,50.80
2023-05-19T20:39:35.774Z,51.07
2023-05-19T20:42:02.808Z,52.61
2023-05-19T20:44:29.895Z,53.05
2023-05-19T20:46:57.935Z,51.91
2023-05-19T20:49:25.064Z,53.14
2023-05-19T20:51:52.495Z,52.08
2023-05-19T20:54:20.313Z,52.89
2023-05-19T20:56:47.532Z,52.08
2023-05-19T20:59:14.694Z,53.62
2023-05-19T21:01:42.314Z,52.93
2023-05-19T21:04:09.757Z,51.75
2023-05-19T21:06:37.045Z,52.18
2023-05-19T21:09:06.732Z,51.47
2023-05-19T21:11:34.476Z,51.04
2023-05-19T21:14:04.557Z,51.06
2023-05-19T21:16:32.220Z,51.09
2023-05-19T21:18:59.652Z,51.64
2023-05-19T21:21:27.049Z,52.14
2023-05-19T21:23:54.165Z,53.29
2023-05-19T21:26:22.179Z,52.81
2023-05-19T21:28:49.237Z,51.78
2023-05-19T21:31:16.734Z,53.66
2023-05-19T21:33:43.934Z,52.70
2023-05-19T21:36:11.067Z,52.03
2023-05-19T21:38:38.045Z,53.26
2023-05-19T21:41:05.155Z,51.89
2023-05-19T21:43:32.169Z,51.93
2023-05-19T21:45:59.348Z,53.95
2023-05-19T21:48:26.566Z,55.26
2023-05-19T21:50:54.669Z,54.22
2023-05-19T21:53:21.759Z,55.66
2023-05-19T21:55:48.909Z,55.02
2023-05-19T21:58:16.297Z,56.87
2023-05-19T22:00:47.715Z,56.19
2023-05-19T22:03:15.317Z,56.05
2023-05-19T22:05:42.423Z,53.28
2023-05-19T22:08:09.516Z,55.45
2023-05-19T22:10:37.411Z,53.61
2023-05-19T22:13:04.481Z,51.78
2023-05-19T22:15:31.686Z,51.63
2023-05-19T22:17:58.860Z,51.76
2023-05-19T22:20:25.977Z,50.27
2023-05-19T22:22:53.002Z,51.99
2023-05-19T22:25:20.273Z,51.00
2023-05-19T22:27:47.381Z,49.80
2023-05-19T22:30:14.421Z,49.54
2023-05-19T22:32:41.786Z,51.00
2023-05-19T22:35:09.050Z,51.64
2023-05-19T22:37:36.063Z,51.58
2023-05-19T22:40:03.342Z,51.24
2023-05-19T22:42:30.341Z,52.56
2023-05-19T22:44:57.379Z,53.34
2023-05-19T22:47:24.443Z,54.18
2023-05-19T22:49:51.506Z,52.84
2023-05-19T22:52:18.718Z,52.25
2023-05-19T22:54:45.809Z,53.23
2023-05-19T22:57:12.850Z,51.71
2023-05-19T22:59:41.116Z,50.79
2023-05-19T23:02:08.197Z,49.55
2023-05-19T23:04:35.649Z,48.83
2023-05-19T23:07:02.783Z,48.40
2023-05-19T23:09:30.642Z,47.93
2023-05-19T23:11:57.748Z,47.65
2023-05-19T23:14:26.220Z,48.00
2023-05-19T23:16:53.239Z,48.18
2023-05-19T23:19:23.444Z,48.21
2023-05-19T23:21:50.622Z,47.86
2023-05-19T23:24:17.736Z,47.73
2023-05-19T23:26:44.746Z,48.16
2023-05-19T23:29:13.099Z,48.81
2023-05-19T23:31:41.152Z,49.03
2023-05-19T23:34:08.283Z,48.73
2023-05-19T23:36:35.397Z,48.84
2023-05-19T23:39:02.543Z,48.79
2023-05-19T23:41:29.630Z,49.27
2023-05-19T23:43:56.769Z,49.03
2023-05-19T23:46:23.848Z,49.02
2023-05-19T23:48:51.261Z,49.28
2023-05-19T23:51:18.441Z,49.12
2023-05-19T23:53:45.683Z,49.20
2023-05-19T23:56:12.796Z,49.44
2023-05-19T23:58:39.938Z,49.60
